Time;durP1;ratioP1;P1;durP2;ratioP2;P2;SDS_P1;SDS_P2;PMS_P1;PMS_P2;Temp;Humidity;BMP_temperature;BMP_pressure;BME280_temperature;BME280_humidity;BME280_pressure;Samples;Min_cycle;Max_cycle;Signal;HPM_P1;HPM_P2
2022/04/10 18:28:35;;;;;;;3.17;1.73;;;;;;;2.39;100.00;100980.09;4970559;28;20072;-82
2022/04/10 18:31:02;;;;;;;5.70;2.83;;;;;;;2.36;100.00;100986.13;4956154;28;20074;-82
2022/04/10 18:33:29;;;;;;;3.60;1.80;;;;;;;2.30;100.00;100978.19;4940102;28;20133;-84
2022/04/10 18:35:57;;;;;;;3.60;1.80;;;;;;;2.20;100.00;100979.75;4925428;28;20038;-83
2022/04/10 18:38:23;;;;;;;2.90;1.77;;;;;;;2.16;100.00;100993.56;4979750;28;20528;-83
2022/04/10 18:40:50;;;;;;;4.73;1.77;;;;;;;2.10;100.00;100995.16;4968288;28;20062;-83
2022/04/10 18:43:17;;;;;;;5.80;2.27;;;;;;;2.21;100.00;101002.38;4940791;28;20047;-81
2022/04/10 18:45:44;;;;;;;8.63;3.00;;;;;;;2.07;100.00;101001.22;4924970;28;20234;-81
2022/04/10 18:48:13;;;;;;;13.57;6.07;;;;;;;2.08;100.00;101013.38;4954986;28;20046;-82
2022/04/10 18:50:39;;;;;;;13.40;7.40;;;;;;;2.05;100.00;101008.13;4940652;28;20070;-82
2022/04/10 18:53:06;;;;;;;13.90;8.40;;;;;;;2.07;100.00;101002.94;4969970;28;20519;-82
2022/04/10 18:55:33;;;;;;;12.60;6.07;;;;;;;2.11;100.00;101000.44;4986380;28;20132;-82
2022/04/10 18:57:59;;;;;;;7.00;4.17;;;;;;;2.19;100.00;101004.06;4940219;28;20047;-83
2022/04/10 19:00:26;;;;;;;4.47;2.50;;;;;;;2.25;100.00;101009.38;4947935;28;20041;-82
2022/04/10 19:02:54;;;;;;;5.57;2.80;;;;;;;2.29;100.00;101004.25;4958956;28;20472;-83
2022/04/10 19:05:21;;;;;;;4.27;2.40;;;;;;;2.35;100.00;101012.16;4958277;28;20058;-83
2022/04/10 19:07:47;;;;;;;5.87;2.90;;;;;;;2.29;100.00;101017.28;4937628;28;20047;-82
2022/04/10 19:10:14;;;;;;;5.20;3.40;;;;;;;2.30;100.00;101025.13;4921332;28;20047;-82
2022/04/10 19:12:41;;;;;;;4.93;4.33;;;;;;;2.19;100.00;101024.94;4954443;28;20050;-81
2022/04/10 19:15:08;;;;;;;5.47;3.50;;;;;;;2.21;100.00;101022.34;4922461;28;20058;-82
2022/04/10 19:17:35;;;;;;;6.20;2.70;;;;;;;2.18;100.00;101023.13;4922228;28;20054;-82
2022/04/10 19:20:02;;;;;;;3.47;2.23;;;;;;;2.12;100.00;101028.25;4970012;28;20034;-83
2022/04/10 19:22:28;;;;;;;4.80;2.10;;;;;;;2.13;100.00;101036.94;4955664;28;20045;-82
2022/04/10 19:24:55;;;;;;;3.33;2.07;;;;;;;2.23;100.00;101025.84;4917560;29;20047;-82
2022/04/10 19:27:22;;;;;;;4.10;2.87;;;;;;;2.17;100.00;101033.53;4976937;28;20523;-82
2022/04/10 19:29:53;;;;;;;6.40;3.50;;;;;;;2.12;100.00;101029.97;4945069;28;20517;-82
2022/04/10 19:32:20;;;;;;;8.03;3.53;;;;;;;2.13;100.00;101037.81;4955110;28;20073;-82
2022/04/10 19:34:48;;;;;;;4.87;2.97;;;;;;;2.17;100.00;101030.94;4939500;28;20093;-82
2022/04/10 19:37:14;;;;;;;5.03;2.63;;;;;;;2.21;100.00;101043.19;4967555;28;20047;-83
2022/04/10 19:39:41;;;;;;;6.30;2.53;;;;;;;2.25;100.00;101045.00;4940500;28;20089;-82
2022/04/10 19:42:09;;;;;;;3.83;2.83;;;;;;;2.30;100.00;101035.53;4960589;28;20120;-82
2022/04/10 19:44:36;;;;;;;3.93;2.67;;;;;;;2.34;100.00;101039.06;4936640;29;20520;-82
2022/04/10 19:47:03;;;;;;;10.83;6.73;;;;;;;2.41;100.00;101035.75;4957573;28;20047;-82
2022/04/10 19:49:29;;;;;;;13.23;7.73;;;;;;;2.37;100.00;101039.16;4987831;28;20062;-82
2022/04/10 19:51:58;;;;;;;8.23;4.40;;;;;;;2.41;100.00;101043.56;4959005;28;20043;-83
2022/04/10 19:54:25;;;;;;;5.13;2.63;;;;;;;2.42;100.00;101042.72;4943192;28;20042;-82
2022/04/10 19:56:52;;;;;;;4.93;1.83;;;;;;;2.45;100.00;101042.78;4973713;28;20053;-82
2022/04/10 19:59:18;;;;;;;2.43;1.50;;;;;;;2.47;100.00;101043.69;4946978;28;20425;-82
2022/04/10 20:01:45;;;;;;;3.00;1.80;;;;;;;2.50;100.00;101039.41;4986815;28;20043;-82
2022/04/10 20:04:12;;;;;;;3.53;1.70;;;;;;;2.56;100.00;101041.25;4946057;28;20039;-81
2022/04/10 20:06:39;;;;;;;3.93;1.83;;;;;;;2.58;100.00;101031.72;4949880;28;20049;-80
2022/04/10 20:09:05;;;;;;;3.77;1.63;;;;;;;2.60;100.00;101040.44;4949950;28;20039;-81
2022/04/10 20:11:32;;;;;;;2.63;1.60;;;;;;;2.64;100.00;101041.38;4988586;28;20046;-81
2022/04/10 20:14:00;;;;;;;2.00;1.70;;;;;;;2.68;100.00;101038.84;4955585;28;20097;-81
2022/04/10 20:16:27;;;;;;;4.33;2.30;;;;;;;2.69;100.00;101050.16;4955395;28;21158;-81
2022/04/10 20:18:54;;;;;;;5.87;3.47;;;;;;;2.70;100.00;101042.38;4969722;28;20043;-81
2022/04/10 20:21:21;;;;;;;7.83;4.60;;;;;;;2.68;100.00;101045.78;4925623;28;20105;-81
2022/04/10 20:23:48;;;;;;;7.90;5.03;;;;;;;2.74;100.00;101049.38;4938468;28;20050;-81
2022/04/10 20:26:15;;;;;;;6.80;4.30;;;;;;;2.74;100.00;101045.91;4957252;28;20046;-82
2022/04/10 20:28:43;;;;;;;5.97;3.13;;;;;;;2.79;100.00;101041.66;4974734;28;20042;-82
2022/04/10 20:31:12;;;;;;;5.23;2.97;;;;;;;2.84;100.00;101045.22;4969170;28;20053;-82
2022/04/10 20:33:39;;;;;;;7.43;4.30;;;;;;;2.81;100.00;101043.44;4948594;28;20439;-82
2022/04/10 20:36:05;;;;;;;5.70;2.80;;;;;;;2.80;100.00;101049.50;4949716;28;20051;-81
2022/04/10 20:38:35;;;;;;;4.47;3.30;;;;;;;2.80;100.00;101048.63;4947467;28;20042;-80
2022/04/10 20:41:02;;;;;;;4.70;2.70;;;;;;;2.79;100.00;101055.59;4985023;28;20046;-81
2022/04/10 20:43:29;;;;;;;5.30;3.23;;;;;;;2.83;100.00;101059.09;4945314;28;20051;-81
2022/04/10 20:45:55;;;;;;;5.87;3.20;;;;;;;2.84;100.00;101053.03;4987725;28;20043;-81
2022/04/10 20:48:24;;;;;;;5.53;2.60;;;;;;;2.82;100.00;101059.97;4957574;28;20053;-81
2022/04/10 20:50:51;;;;;;;5.77;3.10;;;;;;;2.83;100.00;101059.09;4958009;28;20047;-81
2022/04/10 20:53:19;;;;;;;3.17;1.97;;;;;;;2.87;100.00;101054.84;4958469;28;20416;-81
2022/04/10 20:55:45;;;;;;;3.83;1.80;;;;;;;2.91;100.00;101060.13;4956397;28;20046;-82
2022/04/10 20:58:19;;;;;;;2.70;1.67;;;;;;;2.90;100.00;101068.81;4981078;28;20060;-81
2022/04/10 21:00:51;;;;;;;5.30;1.97;;;;;;;2.92;100.00;101072.31;4962435;28;20049;-80
2022/04/10 21:03:18;;;;;;;3.73;1.83;;;;;;;2.91;100.00;101069.69;4936644;28;20150;-82
2022/04/10 21:05:45;;;;;;;4.30;1.50;;;;;;;2.88;100.00;101072.25;4959341;28;20234;-80
2022/04/10 21:08:12;;;;;;;3.77;1.57;;;;;;;2.89;100.00;101072.28;4938523;28;20054;-81
2022/04/10 21:10:54;;;;;;;3.37;1.97;;;;;;;2.89;100.00;101071.41;4949342;28;20053;-80
2022/04/10 21:13:25;;;;;;;5.00;1.70;;;;;;;2.88;100.00;101072.25;4940181;28;20097;-81
2022/04/10 21:15:58;;;;;;;4.50;1.90;;;;;;;2.91;100.00;101073.16;4944675;28;20146;-81
2022/04/10 21:18:26;;;;;;;3.77;1.50;;;;;;;2.84;100.00;101071.31;4939737;28;20042;-81
2022/04/10 21:20:56;;;;;;;2.57;1.80;;;;;;;2.78;100.00;101074.69;4919477;28;20361;-81
2022/04/10 21:23:30;;;;;;;4.53;1.70;;;;;;;2.79;100.00;101076.47;4955959;28;20041;-81
2022/04/10 21:25:56;;;;;;;3.73;1.60;;;;;;;2.81;100.00;101082.56;4944022;28;20039;-81
2022/04/10 21:28:23;;;;;;;2.40;1.40;;;;;;;2.76;100.00;101081.59;4937291;28;20046;-81
2022/04/10 21:30:55;;;;;;;3.63;1.50;;;;;;;2.72;100.00;101079.81;4982881;28;20043;-81
2022/04/10 21:33:23;;;;;;;5.37;1.80;;;;;;;2.72;100.00;101079.81;4937611;28;20101;-81
2022/04/10 21:35:50;;;;;;;3.30;1.90;;;;;;;2.70;100.00;101075.41;4953269;28;20058;-81
2022/04/10 21:38:17;;;;;;;5.70;2.40;;;;;;;2.68;100.00;101075.38;4970083;28;20070;-81
2022/04/10 21:40:43;;;;;;;4.87;1.90;;;;;;;2.73;100.00;101080.69;4950977;28;20031;-81
2022/04/10 21:43:12;;;;;;;4.83;2.23;;;;;;;2.86;100.00;101084.38;4953536;28;20557;-82
2022/04/10 21:45:38;;;;;;;7.00;2.07;;;;;;;2.81;100.00;101086.91;4938027;28;20420;-81
2022/04/10 21:48:08;;;;;;;6.57;2.47;;;;;;;2.81;100.00;101090.41;4950013;28;20088;-80
2022/04/10 21:50:42;;;;;;;4.87;2.07;;;;;;;2.86;100.00;101092.19;4972514;28;20710;-81
2022/04/10 21:53:10;;;;;;;5.33;2.00;;;;;;;2.79;100.00;101086.00;4954055;28;20089;-81
2022/04/10 21:55:37;;;;;;;5.87;1.90;;;;;;;2.69;100.00;101094.50;4940745;28;20055;-82
2022/04/10 21:58:05;;;;;;;4.20;2.03;;;;;;;2.68;100.00;101091.00;4970064;28;20058;-82
2022/04/10 22:00:31;;;;;;;3.90;1.80;;;;;;;2.68;100.00;101088.41;4950721;28;20039;-81
2022/04/10 22:03:00;;;;;;;3.47;1.80;;;;;;;2.72;100.00;101081.53;4950813;28;20043;-81
2022/04/10 22:05:27;;;;;;;4.10;1.80;;;;;;;2.80;100.00;101093.88;4965832;28;20046;-82
2022/04/10 22:07:54;;;;;;;5.10;2.13;;;;;;;2.86;100.00;101090.50;4954267;28;20046;-81
2022/04/10 22:10:26;;;;;;;6.17;2.07;;;;;;;2.90;100.00;101088.81;4972350;28;20054;-81
2022/04/10 22:12:53;;;;;;;5.90;2.27;;;;;;;3.05;100.00;101097.78;4952355;28;20039;-81
2022/04/10 22:15:20;;;;;;;6.53;2.37;;;;;;;3.08;100.00;101087.38;4947774;28;20035;-80
2022/04/10 22:17:46;;;;;;;5.30;2.17;;;;;;;3.09;100.00;101088.25;4952149;28;20451;-81
2022/04/10 22:20:16;;;;;;;4.57;2.70;;;;;;;3.02;100.00;101102.94;4962078;28;20043;-81
2022/04/10 22:22:43;;;;;;;8.00;2.60;;;;;;;3.04;100.00;101101.25;4958571;28;20042;-81
2022/04/10 22:25:14;;;;;;;7.33;2.97;;;;;;;3.22;100.00;101103.28;4972193;28;20073;-80
2022/04/10 22:27:41;;;;;;;8.63;3.20;;;;;;;3.33;100.00;101106.94;4940801;28;20231;-80
2022/04/10 22:30:11;;;;;;;6.17;2.43;;;;;;;3.19;100.00;101103.22;4979731;28;20049;-80
2022/04/10 22:32:38;;;;;;;8.53;2.57;;;;;;;3.22;100.00;101105.91;4973455;28;20038;-80
2022/04/10 22:35:07;;;;;;;11.43;2.47;;;;;;;3.22;100.00;101107.63;4952478;28;20065;-81
2022/04/10 22:37:35;;;;;;;5.33;2.60;;;;;;;3.32;100.00;101109.53;4943304;28;20638;-81
2022/04/10 22:40:02;;;;;;;3.63;2.03;;;;;;;3.19;100.00;101108.44;4951505;28;20035;-81
2022/04/10 22:42:31;;;;;;;3.97;1.90;;;;;;;3.11;100.00;101107.44;4939157;28;20061;-81
2022/04/10 22:44:58;;;;;;;3.07;1.90;;;;;;;3.23;100.00;101104.16;4945412;28;20051;-82
2022/04/10 22:47:27;;;;;;;4.43;1.53;;;;;;;3.18;100.00;101103.19;4954207;28;20069;-80
2022/04/10 22:49:54;;;;;;;4.10;1.70;;;;;;;3.13;100.00;101097.03;4968295;28;20041;-80
2022/04/10 22:52:22;;;;;;;8.87;3.20;;;;;;;3.08;100.00;101095.22;4967115;28;20050;-80
2022/04/10 22:54:49;;;;;;;3.03;1.90;;;;;;;3.12;100.00;101098.78;4923748;28;20041;-81
2022/04/10 22:57:15;;;;;;;5.77;1.83;;;;;;;3.07;100.00;101108.25;4945027;28;20077;-81
2022/04/10 22:59:42;;;;;;;9.33;2.73;;;;;;;3.09;100.00;101116.97;4945727;28;20047;-81
2022/04/10 23:02:11;;;;;;;3.83;1.70;;;;;;;3.18;100.00;101117.13;4960404;28;20058;-81
2022/04/10 23:04:40;;;;;;;4.73;2.10;;;;;;;3.21;100.00;101106.75;4944309;28;20043;-82
2022/04/10 23:07:06;;;;;;;3.50;1.83;;;;;;;3.18;100.00;101103.19;4960707;28;20046;-81
2022/04/10 23:09:40;;;;;;;4.70;1.73;;;;;;;3.18;100.00;101116.25;4993951;28;20047;-81
2022/04/10 23:12:07;;;;;;;2.83;1.70;;;;;;;3.16;100.00;101123.19;4969425;28;20050;-81
2022/04/10 23:14:33;;;;;;;7.37;2.20;;;;;;;3.12;100.00;101122.25;4951344;28;20403;-81
2022/04/10 23:17:00;;;;;;;4.63;1.93;;;;;;;3.14;100.00;101125.78;4950590;28;20050;-81
2022/04/10 23:19:40;;;;;;;3.03;1.73;;;;;;;3.19;100.00;101129.31;4964685;28;20109;-81
2022/04/10 23:22:06;;;;;;;5.40;1.80;;;;;;;3.14;100.00;101130.13;4939518;28;20070;-81
2022/04/10 23:24:33;;;;;;;3.00;1.60;;;;;;;3.10;100.00;101126.56;4984590;28;20043;-82
2022/04/10 23:27:07;;;;;;;2.87;1.90;;;;;;;3.11;100.00;101133.53;4951801;28;20046;-81
2022/04/10 23:29:41;;;;;;;4.30;1.63;;;;;;;3.10;100.00;101132.66;4981300;28;20046;-81
2022/04/10 23:32:08;;;;;;;5.32;1.98;;;;;;;3.15;100.00;101139.72;4956839;28;20042;-80
2022/04/10 23:34:41;;;;;;;4.97;1.57;;;;;;;3.14;100.00;101137.94;4979131;28;20046;-80
2022/04/10 23:37:07;;;;;;;5.30;1.83;;;;;;;3.13;100.00;101126.63;4952170;28;20121;-81
2022/04/10 23:39:34;;;;;;;3.97;2.07;;;;;;;3.13;100.00;101139.69;4967972;28;20493;-81
2022/04/10 23:42:04;;;;;;;2.57;1.30;;;;;;;3.08;100.00;101146.53;4973179;28;20039;-81
2022/04/10 23:44:30;;;;;;;2.63;1.87;;;;;;;3.10;100.00;101144.84;4979414;28;20037;-80
2022/04/10 23:46:57;;;;;;;4.67;1.53;;;;;;;3.13;100.00;101130.97;4975135;28;20042;-81
2022/04/10 23:49:23;;;;;;;3.57;1.80;;;;;;;3.18;100.00;101124.09;4965416;28;20050;-81
2022/04/10 23:51:51;;;;;;;3.57;1.90;;;;;;;3.21;100.00;101127.66;4924902;28;20050;-81
2022/04/10 23:54:18;;;;;;;3.33;1.43;;;;;;;3.10;100.00;101131.78;4945518;28;20039;-81
2022/04/10 23:56:47;;;;;;;5.13;2.40;;;;;;;3.10;100.00;101134.38;4979606;28;20734;-80
2022/04/10 23:59:14;;;;;;;3.20;1.80;;;;;;;3.10;100.00;101129.16;4966345;28;20050;-80
